sensor_id;sensor_type;location;lat;lon;timestamp;temperature;humidity
38456;DHT22;24237;50.106;20.014;2023-05-16T00:00:08;14.90;99.90
38456;DHT22;24237;50.106;20.014;2023-05-16T00:02:35;14.80;99.90
38456;DHT22;24237;50.106;20.014;2023-05-16T00:05:02;14.90;99.90
38456;DHT22;24237;50.106;20.014;2023-05-16T00:07:29;14.70;99.90
38456;DHT22;24237;50.106;20.014;2023-05-16T00:09:55;14.80;99.90
38456;DHT22;24237;50.106;20.014;2023-05-16T00:12:21;14.80;99.90
38456;DHT22;24237;50.106;20.014;2023-05-16T00:14:47;14.80;99.90
38456;DHT22;24237;50.106;20.014;2023-05-16T00:17:14;14.80;99.90
38456;DHT22;24237;50.106;20.014;2023-05-16T00:19:44;14.80;99.90
38456;DHT22;24237;50.106;20.014;2023-05-16T00:22:11;14.80;99.90
38456;DHT22;24237;50.106;20.014;2023-05-16T00:24:37;14.90;99.90
38456;DHT22;24237;50.106;20.014;2023-05-16T00:27:03;14.70;99.90
38456;DHT22;24237;50.106;20.014;2023-05-16T00:29:33;14.50;99.90
38456;DHT22;24237;50.106;20.014;2023-05-16T00:31:59;14.40;99.90
38456;DHT22;24237;50.106;20.014;2023-05-16T00:34:25;14.60;99.90
38456;DHT22;24237;50.106;20.014;2023-05-16T00:36:50;14.60;99.90
38456;DHT22;24237;50.106;20.014;2023-05-16T00:39:16;14.60;99.90
38456;DHT22;24237;50.106;20.014;2023-05-16T00:41:42;14.60;99.90
38456;DHT22;24237;50.106;20.014;2023-05-16T00:44:07;14.70;99.90
38456;DHT22;24237;50.106;20.014;2023-05-16T00:46:33;14.60;99.90
38456;DHT22;24237;50.106;20.014;2023-05-16T00:48:58;14.60;99.90
38456;DHT22;24237;50.106;20.014;2023-05-16T00:51:24;14.70;99.90
38456;DHT22;24237;50.106;20.014;2023-05-16T00:53:50;14.80;99.90
38456;DHT22;24237;50.106;20.014;2023-05-16T00:56:16;14.70;99.90
38456;DHT22;24237;50.106;20.014;2023-05-16T00:58:42;14.50;99.90
38456;DHT22;24237;50.106;20.014;2023-05-16T01:01:08;14.40;99.90
38456;DHT22;24237;50.106;20.014;2023-05-16T01:03:34;14.40;99.90
38456;DHT22;24237;50.106;20.014;2023-05-16T01:06:02;14.20;99.90
38456;DHT22;24237;50.106;20.014;2023-05-16T01:08:28;14.30;99.90
38456;DHT22;24237;50.106;20.014;2023-05-16T01:11:02;14.40;99.90
38456;DHT22;24237;50.106;20.014;2023-05-16T01:16:58;14.40;99.90
38456;DHT22;24237;50.106;20.014;2023-05-16T01:22:45;14.40;99.90
38456;DHT22;24237;50.106;20.014;2023-05-16T01:27:46;14.20;99.90
38456;DHT22;24237;50.106;20.014;2023-05-16T01:30:14;14.10;99.90
38456;DHT22;24237;50.106;20.014;2023-05-16T01:32:41;14.10;99.90
38456;DHT22;24237;50.106;20.014;2023-05-16T01:35:08;14.10;99.90
38456;DHT22;24237;50.106;20.014;2023-05-16T01:43:13;13.90;99.90
38456;DHT22;24237;50.106;20.014;2023-05-16T01:45:46;13.90;99.90
38456;DHT22;24237;50.106;20.014;2023-05-16T01:48:24;13.80;99.90
38456;DHT22;24237;50.106;20.014;2023-05-16T01:50:54;13.60;99.90
38456;DHT22;24237;50.106;20.014;2023-05-16T01:53:36;13.70;99.90
38456;DHT22;24237;50.106;20.014;2023-05-16T01:56:03;13.80;99.90
38456;DHT22;24237;50.106;20.014;2023-05-16T01:58:33;13.90;99.90
38456;DHT22;24237;50.106;20.014;2023-05-16T02:01:02;13.90;99.90
38456;DHT22;24237;50.106;20.014;2023-05-16T02:03:29;14.00;99.90
38456;DHT22;24237;50.106;20.014;2023-05-16T02:05:56;14.20;99.90
38456;DHT22;24237;50.106;20.014;2023-05-16T02:08:22;14.00;99.90
38456;DHT22;24237;50.106;20.014;2023-05-16T02:10:48;13.70;99.90
38456;DHT22;24237;50.106;20.014;2023-05-16T02:13:14;13.60;99.90
38456;DHT22;24237;50.106;20.014;2023-05-16T02:15:39;13.90;99.90
38456;DHT22;24237;50.106;20.014;2023-05-16T02:18:05;14.00;99.90
38456;DHT22;24237;50.106;20.014;2023-05-16T02:20:30;13.90;99.90
38456;DHT22;24237;50.106;20.014;2023-05-16T02:22:56;13.70;99.90
38456;DHT22;24237;50.106;20.014;2023-05-16T02:25:22;13.60;99.90
38456;DHT22;24237;50.106;20.014;2023-05-16T02:27:48;13.40;99.90
38456;DHT22;24237;50.106;20.014;2023-05-16T02:30:13;13.10;99.90
38456;DHT22;24237;50.106;20.014;2023-05-16T02:32:40;13.00;99.90
38456;DHT22;24237;50.106;20.014;2023-05-16T02:35:06;12.80;99.90
38456;DHT22;24237;50.106;20.014;2023-05-16T02:37:32;12.80;99.90
38456;DHT22;24237;50.106;20.014;2023-05-16T02:39:58;12.60;99.90
38456;DHT22;24237;50.106;20.014;2023-05-16T02:42:25;12.40;99.90
38456;DHT22;24237;50.106;20.014;2023-05-16T02:44:51;12.40;99.90
38456;DHT22;24237;50.106;20.014;2023-05-16T02:47:17;12.70;99.90
38456;DHT22;24237;50.106;20.014;2023-05-16T02:49:42;12.80;99.90
38456;DHT22;24237;50.106;20.014;2023-05-16T02:52:08;13.00;99.90
38456;DHT22;24237;50.106;20.014;2023-05-16T02:54:34;13.20;99.90
38456;DHT22;24237;50.106;20.014;2023-05-16T02:57:00;13.00;99.90
38456;DHT22;24237;50.106;20.014;2023-05-16T02:59:25;13.10;99.90
38456;DHT22;24237;50.106;20.014;2023-05-16T03:01:51;13.10;99.90
38456;DHT22;24237;50.106;20.014;2023-05-16T03:04:17;13.10;99.90
38456;DHT22;24237;50.106;20.014;2023-05-16T03:06:43;13.20;99.90
38456;DHT22;24237;50.106;20.014;2023-05-16T03:09:08;13.20;99.90
38456;DHT22;24237;50.106;20.014;2023-05-16T03:11:35;13.20;99.90
38456;DHT22;24237;50.106;20.014;2023-05-16T03:14:00;13.20;99.90
38456;DHT22;24237;50.106;20.014;2023-05-16T03:16:26;13.30;99.90
38456;DHT22;24237;50.106;20.014;2023-05-16T03:18:52;13.40;99.90
38456;DHT22;24237;50.106;20.014;2023-05-16T03:21:18;13.40;99.90
38456;DHT22;24237;50.106;20.014;2023-05-16T03:23:43;13.30;99.90
38456;DHT22;24237;50.106;20.014;2023-05-16T03:26:09;13.30;99.90
38456;DHT22;24237;50.106;20.014;2023-05-16T03:28:36;13.30;99.90
38456;DHT22;24237;50.106;20.014;2023-05-16T03:31:01;13.30;99.90
38456;DHT22;24237;50.106;20.014;2023-05-16T03:33:27;13.20;99.90
38456;DHT22;24237;50.106;20.014;2023-05-16T03:35:52;13.30;99.90
38456;DHT22;24237;50.106;20.014;2023-05-16T03:38:18;13.30;99.90
38456;DHT22;24237;50.106;20.014;2023-05-16T03:40:44;13.20;99.90
38456;DHT22;24237;50.106;20.014;2023-05-16T03:43:09;13.20;99.90
38456;DHT22;24237;50.106;20.014;2023-05-16T03:45:35;13.40;99.90
38456;DHT22;24237;50.106;20.014;2023-05-16T03:48:01;13.50;99.90
38456;DHT22;24237;50.106;20.014;2023-05-16T03:50:26;13.60;99.90
38456;DHT22;24237;50.106;20.014;2023-05-16T03:52:53;13.80;99.90
38456;DHT22;24237;50.106;20.014;2023-05-16T03:55:19;13.80;99.90
38456;DHT22;24237;50.106;20.014;2023-05-16T03:57:45;14.00;99.90
38456;DHT22;24237;50.106;20.014;2023-05-16T04:00:11;14.10;99.90
38456;DHT22;24237;50.106;20.014;2023-05-16T04:02:38;14.30;99.90
38456;DHT22;24237;50.106;20.014;2023-05-16T04:05:06;14.30;99.90
38456;DHT22;24237;50.106;20.014;2023-05-16T04:07:32;14.50;99.90
38456;DHT22;24237;50.106;20.014;2023-05-16T04:09:58;14.80;99.90
38456;DHT22;24237;50.106;20.014;2023-05-16T04:12:23;14.60;99.90
38456;DHT22;24237;50.106;20.014;2023-05-16T04:14:49;14.70;99.90
38456;DHT22;24237;50.106;20.014;2023-05-16T04:17:15;14.70;99.90
38456;DHT22;24237;50.106;20.014;2023-05-16T04:19:40;14.80;99.90
38456;DHT22;24237;50.106;20.014;2023-05-16T04:22:06;14.70;99.90
38456;DHT22;24237;50.106;20.014;2023-05-16T04:24:32;14.90;99.90
38456;DHT22;24237;50.106;20.014;2023-05-16T04:26:58;14.80;99.90
38456;DHT22;24237;50.106;20.014;2023-05-16T04:29:23;15.10;99.90
38456;DHT22;24237;50.106;20.014;2023-05-16T04:31:49;15.00;99.90
38456;DHT22;24237;50.106;20.014;2023-05-16T04:34:15;15.10;99.90
38456;DHT22;24237;50.106;20.014;2023-05-16T04:36:41;15.60;99.90
38456;DHT22;24237;50.106;20.014;2023-05-16T04:39:07;15.60;99.90
38456;DHT22;24237;50.106;20.014;2023-05-16T04:41:33;15.80;99.90
38456;DHT22;24237;50.106;20.014;2023-05-16T04:44:01;15.80;99.90
38456;DHT22;24237;50.106;20.014;2023-05-16T04:46:28;15.70;99.90
38456;DHT22;24237;50.106;20.014;2023-05-16T04:48:54;15.60;99.90
38456;DHT22;24237;50.106;20.014;2023-05-16T04:51:20;15.90;99.90
38456;DHT22;24237;50.106;20.014;2023-05-16T04:53:46;16.00;99.90
38456;DHT22;24237;50.106;20.014;2023-05-16T04:56:12;16.10;99.90
38456;DHT22;24237;50.106;20.014;2023-05-16T04:58:37;16.60;99.90
38456;DHT22;24237;50.106;20.014;2023-05-16T05:01:03;16.40;99.90
38456;DHT22;24237;50.106;20.014;2023-05-16T05:03:29;16.90;99.90
38456;DHT22;24237;50.106;20.014;2023-05-16T05:05:55;16.60;99.90
38456;DHT22;24237;50.106;20.014;2023-05-16T05:08:20;16.60;99.90
38456;DHT22;24237;50.106;20.014;2023-05-16T05:10:46;16.60;99.90
38456;DHT22;24237;50.106;20.014;2023-05-16T05:13:12;16.80;99.90
38456;DHT22;24237;50.106;20.014;2023-05-16T05:15:37;16.90;99.90
38456;DHT22;24237;50.106;20.014;2023-05-16T05:18:03;16.90;99.90
38456;DHT22;24237;50.106;20.014;2023-05-16T05:20:28;17.10;99.90
38456;DHT22;24237;50.106;20.014;2023-05-16T05:22:54;17.30;99.90
38456;DHT22;24237;50.106;20.014;2023-05-16T05:25:20;17.40;99.90
38456;DHT22;24237;50.106;20.014;2023-05-16T05:27:45;17.60;99.90
38456;DHT22;24237;50.106;20.014;2023-05-16T05:30:11;17.60;99.90
38456;DHT22;24237;50.106;20.014;2023-05-16T05:32:37;17.70;99.90
38456;DHT22;24237;50.106;20.014;2023-05-16T05:35:03;17.90;99.90
38456;DHT22;24237;50.106;20.014;2023-05-16T05:37:29;18.20;99.90
38456;DHT22;24237;50.106;20.014;2023-05-16T05:39:55;18.40;99.90
38456;DHT22;24237;50.106;20.014;2023-05-16T05:42:21;18.20;99.90
38456;DHT22;24237;50.106;20.014;2023-05-16T05:44:46;18.20;99.90
38456;DHT22;24237;50.106;20.014;2023-05-16T05:47:12;18.30;99.90
38456;DHT22;24237;50.106;20.014;2023-05-16T05:49:38;18.60;99.90
38456;DHT22;24237;50.106;20.014;2023-05-16T05:52:04;18.30;99.90
38456;DHT22;24237;50.106;20.014;2023-05-16T05:54:29;18.00;99.90
38456;DHT22;24237;50.106;20.014;2023-05-16T05:56:58;18.10;99.90
38456;DHT22;24237;50.106;20.014;2023-05-16T05:59:24;18.40;99.90
38456;DHT22;24237;50.106;20.014;2023-05-16T06:01:49;18.40;99.90
38456;DHT22;24237;50.106;20.014;2023-05-16T06:04:17;18.70;99.90
38456;DHT22;24237;50.106;20.014;2023-05-16T06:06:43;18.60;99.90
38456;DHT22;24237;50.106;20.014;2023-05-16T06:09:08;18.80;99.90
38456;DHT22;24237;50.106;20.014;2023-05-16T06:11:34;18.60;99.90
38456;DHT22;24237;50.106;20.014;2023-05-16T06:13:59;18.60;99.90
38456;DHT22;24237;50.106;20.014;2023-05-16T06:16:25;18.70;99.90
38456;DHT22;24237;50.106;20.014;2023-05-16T06:18:50;18.80;99.90
38456;DHT22;24237;50.106;20.014;2023-05-16T06:21:16;19.00;99.90
38456;DHT22;24237;50.106;20.014;2023-05-16T06:23:42;19.20;99.90
38456;DHT22;24237;50.106;20.014;2023-05-16T06:26:07;19.00;99.90
38456;DHT22;24237;50.106;20.014;2023-05-16T06:28:33;19.10;99.90
38456;DHT22;24237;50.106;20.014;2023-05-16T06:30:58;19.20;99.90
38456;DHT22;24237;50.106;20.014;2023-05-16T06:33:24;19.20;99.90
38456;DHT22;24237;50.106;20.014;2023-05-16T06:35:50;19.00;99.90
38456;DHT22;24237;50.106;20.014;2023-05-16T06:38:17;18.90;99.90
38456;DHT22;24237;50.106;20.014;2023-05-16T06:40:44;19.00;99.90
38456;DHT22;24237;50.106;20.014;2023-05-16T06:43:09;19.30;99.90
38456;DHT22;24237;50.106;20.014;2023-05-16T06:45:36;19.10;99.90
38456;DHT22;24237;50.106;20.014;2023-05-16T06:48:03;19.10;99.90
38456;DHT22;24237;50.106;20.014;2023-05-16T06:50:28;19.40;99.90
38456;DHT22;24237;50.106;20.014;2023-05-16T06:52:54;19.30;99.90
38456;DHT22;24237;50.106;20.014;2023-05-16T06:55:19;19.30;99.90
38456;DHT22;24237;50.106;20.014;2023-05-16T06:57:45;19.20;99.90
38456;DHT22;24237;50.106;20.014;2023-05-16T07:00:11;19.50;99.90
38456;DHT22;24237;50.106;20.014;2023-05-16T07:02:37;19.50;99.90
38456;DHT22;24237;50.106;20.014;2023-05-16T07:05:02;19.90;99.90
38456;DHT22;24237;50.106;20.014;2023-05-16T07:07:28;19.90;99.90
38456;DHT22;24237;50.106;20.014;2023-05-16T07:09:54;20.00;99.90
38456;DHT22;24237;50.106;20.014;2023-05-16T07:12:19;19.80;99.90
38456;DHT22;24237;50.106;20.014;2023-05-16T07:14:45;19.90;99.90
38456;DHT22;24237;50.106;20.014;2023-05-16T07:17:12;20.00;99.90
38456;DHT22;24237;50.106;20.014;2023-05-16T07:19:37;20.20;99.90
38456;DHT22;24237;50.106;20.014;2023-05-16T07:22:03;20.10;99.90
38456;DHT22;24237;50.106;20.014;2023-05-16T07:24:29;20.30;99.90
38456;DHT22;24237;50.106;20.014;2023-05-16T07:26:54;20.50;99.90
38456;DHT22;24237;50.106;20.014;2023-05-16T07:29:20;20.70;99.90
38456;DHT22;24237;50.106;20.014;2023-05-16T07:31:46;20.70;99.90
38456;DHT22;24237;50.106;20.014;2023-05-16T07:34:11;20.80;99.90
38456;DHT22;24237;50.106;20.014;2023-05-16T07:36:38;21.00;99.90
38456;DHT22;24237;50.106;20.014;2023-05-16T07:39:03;21.20;99.90
38456;DHT22;24237;50.106;20.014;2023-05-16T07:41:30;21.20;99.90
38456;DHT22;24237;50.106;20.014;2023-05-16T07:43:55;21.00;99.90
38456;DHT22;24237;50.106;20.014;2023-05-16T07:46:22;21.10;99.90
38456;DHT22;24237;50.106;20.014;2023-05-16T07:48:48;21.20;99.90
38456;DHT22;24237;50.106;20.014;2023-05-16T07:51:14;21.10;99.90
38456;DHT22;24237;50.106;20.014;2023-05-16T07:53:40;21.40;99.90
38456;DHT22;24237;50.106;20.014;2023-05-16T07:56:06;21.40;99.90
38456;DHT22;24237;50.106;20.014;2023-05-16T07:58:32;21.50;99.90
38456;DHT22;24237;50.106;20.014;2023-05-16T08:00:58;21.80;99.90
38456;DHT22;24237;50.106;20.014;2023-05-16T08:03:24;21.80;99.90
38456;DHT22;24237;50.106;20.014;2023-05-16T08:05:49;22.00;99.90
38456;DHT22;24237;50.106;20.014;2023-05-16T08:08:16;22.30;99.90
38456;DHT22;24237;50.106;20.014;2023-05-16T08:10:41;22.40;99.90
38456;DHT22;24237;50.106;20.014;2023-05-16T08:13:07;22.30;99.90
38456;DHT22;24237;50.106;20.014;2023-05-16T08:15:33;22.50;99.90
38456;DHT22;24237;50.106;20.014;2023-05-16T08:17:59;22.70;99.60
38456;DHT22;24237;50.106;20.014;2023-05-16T08:20:26;22.50;99.90
38456;DHT22;24237;50.106;20.014;2023-05-16T08:22:52;22.40;99.90
38456;DHT22;24237;50.106;20.014;2023-05-16T08:25:18;22.70;99.90
38456;DHT22;24237;50.106;20.014;2023-05-16T08:27:44;22.60;99.90
38456;DHT22;24237;50.106;20.014;2023-05-16T08:30:10;22.50;99.90
38456;DHT22;24237;50.106;20.014;2023-05-16T08:32:37;22.40;99.90
38456;DHT22;24237;50.106;20.014;2023-05-16T08:35:03;22.40;99.60
38456;DHT22;24237;50.106;20.014;2023-05-16T08:37:28;22.30;99.70
38456;DHT22;24237;50.106;20.014;2023-05-16T08:39:54;22.50;99.30
38456;DHT22;24237;50.106;20.014;2023-05-16T08:42:20;22.40;99.50
38456;DHT22;24237;50.106;20.014;2023-05-16T08:44:45;22.40;99.90
38456;DHT22;24237;50.106;20.014;2023-05-16T08:47:17;22.30;98.90
38456;DHT22;24237;50.106;20.014;2023-05-16T08:49:43;22.40;98.50
38456;DHT22;24237;50.106;20.014;2023-05-16T08:52:12;22.10;98.60
38456;DHT22;24237;50.106;20.014;2023-05-16T08:54:42;22.20;99.10
38456;DHT22;24237;50.106;20.014;2023-05-16T08:57:08;22.30;99.30
38456;DHT22;24237;50.106;20.014;2023-05-16T08:59:34;22.70;99.50
38456;DHT22;24237;50.106;20.014;2023-05-16T09:02:00;23.00;98.60
38456;DHT22;24237;50.106;20.014;2023-05-16T09:04:26;23.20;98.10
38456;DHT22;24237;50.106;20.014;2023-05-16T09:06:52;23.10;98.10
38456;DHT22;24237;50.106;20.014;2023-05-16T09:09:18;23.50;98.10
38456;DHT22;24237;50.106;20.014;2023-05-16T09:11:44;23.70;97.10
38456;DHT22;24237;50.106;20.014;2023-05-16T09:14:10;23.60;96.00
38456;DHT22;24237;50.106;20.014;2023-05-16T09:16:36;23.50;96.40
38456;DHT22;24237;50.106;20.014;2023-05-16T09:19:02;23.10;96.20
38456;DHT22;24237;50.106;20.014;2023-05-16T09:21:31;23.40;96.40
38456;DHT22;24237;50.106;20.014;2023-05-16T09:24:04;23.60;95.80
38456;DHT22;24237;50.106;20.014;2023-05-16T09:26:33;23.50;95.70
38456;DHT22;24237;50.106;20.014;2023-05-16T09:28:59;23.40;95.50
38456;DHT22;24237;50.106;20.014;2023-05-16T09:31:26;23.20;96.20
38456;DHT22;24237;50.106;20.014;2023-05-16T09:33:54;22.90;96.80
38456;DHT22;24237;50.106;20.014;2023-05-16T09:36:20;22.70;97.00
38456;DHT22;24237;50.106;20.014;2023-05-16T09:38:46;22.70;97.50
38456;DHT22;24237;50.106;20.014;2023-05-16T09:41:12;23.00;97.00
38456;DHT22;24237;50.106;20.014;2023-05-16T09:43:39;23.30;96.60
38456;DHT22;24237;50.106;20.014;2023-05-16T09:46:05;23.70;96.60
38456;DHT22;24237;50.106;20.014;2023-05-16T09:48:33;24.00;96.90
38456;DHT22;24237;50.106;20.014;2023-05-16T09:51:00;24.10;96.30
38456;DHT22;24237;50.106;20.014;2023-05-16T09:53:30;23.70;97.30
38456;DHT22;24237;50.106;20.014;2023-05-16T09:56:04;24.00;97.30
38456;DHT22;24237;50.106;20.014;2023-05-16T09:58:32;24.20;96.50
38456;DHT22;24237;50.106;20.014;2023-05-16T10:00:59;24.00;96.40
38456;DHT22;24237;50.106;20.014;2023-05-16T10:03:26;23.80;96.80
38456;DHT22;24237;50.106;20.014;2023-05-16T10:05:52;23.80;96.80
38456;DHT22;24237;50.106;20.014;2023-05-16T10:08:24;23.70;96.50
38456;DHT22;24237;50.106;20.014;2023-05-16T10:10:51;23.80;97.30
38456;DHT22;24237;50.106;20.014;2023-05-16T10:13:18;24.00;96.30
38456;DHT22;24237;50.106;20.014;2023-05-16T10:15:44;23.90;96.60
38456;DHT22;24237;50.106;20.014;2023-05-16T10:18:12;23.70;96.30
38456;DHT22;24237;50.106;20.014;2023-05-16T10:20:40;23.60;96.90
38456;DHT22;24237;50.106;20.014;2023-05-16T10:23:08;23.50;97.30
38456;DHT22;24237;50.106;20.014;2023-05-16T10:25:40;23.70;96.50
38456;DHT22;24237;50.106;20.014;2023-05-16T10:28:07;23.70;95.90
38456;DHT22;24237;50.106;20.014;2023-05-16T10:30:33;23.80;95.90
38456;DHT22;24237;50.106;20.014;2023-05-16T10:33:00;23.90;95.70
38456;DHT22;24237;50.106;20.014;2023-05-16T10:35:26;23.60;96.00
38456;DHT22;24237;50.106;20.014;2023-05-16T10:37:52;23.60;96.80
38456;DHT22;24237;50.106;20.014;2023-05-16T10:40:18;24.30;96.30
38456;DHT22;24237;50.106;20.014;2023-05-16T10:43:00;24.90;95.80
38456;DHT22;24237;50.106;20.014;2023-05-16T10:45:26;25.20;95.70
38456;DHT22;24237;50.106;20.014;2023-05-16T10:47:55;25.00;94.40
38456;DHT22;24237;50.106;20.014;2023-05-16T10:50:35;24.10;94.90
38456;DHT22;24237;50.106;20.014;2023-05-16T10:58:32;25.00;94.20
38456;DHT22;24237;50.106;20.014;2023-05-16T11:01:20;25.30;94.50
38456;DHT22;24237;50.106;20.014;2023-05-16T11:04:07;25.30;94.50
38456;DHT22;24237;50.106;20.014;2023-05-16T11:11:46;24.90;93.90
38456;DHT22;24237;50.106;20.014;2023-05-16T11:17:15;25.40;94.40
38456;DHT22;24237;50.106;20.014;2023-05-16T11:19:48;25.20;93.80
38456;DHT22;24237;50.106;20.014;2023-05-16T11:27:26;25.20;94.30
38456;DHT22;24237;50.106;20.014;2023-05-16T11:29:54;25.10;94.20
38456;DHT22;24237;50.106;20.014;2023-05-16T11:32:21;25.20;93.50
38456;DHT22;24237;50.106;20.014;2023-05-16T11:34:48;25.20;93.30
38456;DHT22;24237;50.106;20.014;2023-05-16T11:37:15;25.10;92.80
38456;DHT22;24237;50.106;20.014;2023-05-16T11:39:41;25.50;93.40
38456;DHT22;24237;50.106;20.014;2023-05-16T11:42:07;25.60;93.20
38456;DHT22;24237;50.106;20.014;2023-05-16T11:44:34;25.30;94.00
38456;DHT22;24237;50.106;20.014;2023-05-16T11:47:00;24.70;94.90
38456;DHT22;24237;50.106;20.014;2023-05-16T11:49:27;24.40;95.30
38456;DHT22;24237;50.106;20.014;2023-05-16T11:51:53;24.40;95.50
38456;DHT22;24237;50.106;20.014;2023-05-16T11:54:20;24.40;96.40
38456;DHT22;24237;50.106;20.014;2023-05-16T11:56:47;24.60;96.10
38456;DHT22;24237;50.106;20.014;2023-05-16T11:59:14;24.40;96.50
38456;DHT22;24237;50.106;20.014;2023-05-16T12:01:40;24.30;96.40
38456;DHT22;24237;50.106;20.014;2023-05-16T12:04:12;24.10;96.40
38456;DHT22;24237;50.106;20.014;2023-05-16T12:06:38;24.00;96.80
38456;DHT22;24237;50.106;20.014;2023-05-16T12:09:05;24.00;96.70
38456;DHT22;24237;50.106;20.014;2023-05-16T12:11:42;24.00;96.50
38456;DHT22;24237;50.106;20.014;2023-05-16T12:14:11;23.80;96.60
38456;DHT22;24237;50.106;20.014;2023-05-16T12:16:38;23.80;96.50
38456;DHT22;24237;50.106;20.014;2023-05-16T12:19:07;23.60;96.90
38456;DHT22;24237;50.106;20.014;2023-05-16T12:21:34;23.50;96.60
38456;DHT22;24237;50.106;20.014;2023-05-16T12:24:00;23.20;97.20
38456;DHT22;24237;50.106;20.014;2023-05-16T12:26:30;23.10;96.90
38456;DHT22;24237;50.106;20.014;2023-05-16T12:28:58;23.20;97.20
38456;DHT22;24237;50.106;20.014;2023-05-16T12:31:27;23.20;97.10
38456;DHT22;24237;50.106;20.014;2023-05-16T12:33:53;23.30;96.90
38456;DHT22;24237;50.106;20.014;2023-05-16T12:36:20;23.10;97.20
38456;DHT22;24237;50.106;20.014;2023-05-16T12:38:46;23.20;97.10
38456;DHT22;24237;50.106;20.014;2023-05-16T12:41:17;23.10;97.30
38456;DHT22;24237;50.106;20.014;2023-05-16T12:43:43;23.00;97.10
38456;DHT22;24237;50.106;20.014;2023-05-16T12:46:09;22.90;97.40
38456;DHT22;24237;50.106;20.014;2023-05-16T12:48:39;22.90;97.60
38456;DHT22;24237;50.106;20.014;2023-05-16T12:51:17;23.00;97.20
38456;DHT22;24237;50.106;20.014;2023-05-16T12:53:43;22.80;97.10
38456;DHT22;24237;50.106;20.014;2023-05-16T12:56:10;22.90;97.40
38456;DHT22;24237;50.106;20.014;2023-05-16T12:58:36;22.80;97.40
38456;DHT22;24237;50.106;20.014;2023-05-16T13:01:02;22.70;97.50
38456;DHT22;24237;50.106;20.014;2023-05-16T13:03:28;22.50;97.40
38456;DHT22;24237;50.106;20.014;2023-05-16T13:05:54;22.40;97.60
38456;DHT22;24237;50.106;20.014;2023-05-16T13:08:20;22.20;98.40
38456;DHT22;24237;50.106;20.014;2023-05-16T13:10:46;22.30;97.90
38456;DHT22;24237;50.106;20.014;2023-05-16T13:13:11;22.50;97.60
38456;DHT22;24237;50.106;20.014;2023-05-16T13:15:38;22.50;97.60
38456;DHT22;24237;50.106;20.014;2023-05-16T13:18:03;22.50;97.10
38456;DHT22;24237;50.106;20.014;2023-05-16T13:20:29;22.60;97.50
38456;DHT22;24237;50.106;20.014;2023-05-16T13:22:55;22.50;98.20
38456;DHT22;24237;50.106;20.014;2023-05-16T13:25:20;22.60;98.70
38456;DHT22;24237;50.106;20.014;2023-05-16T13:27:46;22.60;98.70
38456;DHT22;24237;50.106;20.014;2023-05-16T13:30:13;22.50;99.20
38456;DHT22;24237;50.106;20.014;2023-05-16T13:32:39;22.20;99.90
38456;DHT22;24237;50.106;20.014;2023-05-16T13:35:05;22.10;99.90
38456;DHT22;24237;50.106;20.014;2023-05-16T13:37:31;21.70;99.90
38456;DHT22;24237;50.106;20.014;2023-05-16T13:39:57;22.00;99.90
38456;DHT22;24237;50.106;20.014;2023-05-16T13:42:23;21.60;99.90
38456;DHT22;24237;50.106;20.014;2023-05-16T13:44:48;21.70;99.90
38456;DHT22;24237;50.106;20.014;2023-05-16T13:47:14;21.40;99.90
38456;DHT22;24237;50.106;20.014;2023-05-16T13:49:40;21.30;99.90
38456;DHT22;24237;50.106;20.014;2023-05-16T13:52:06;21.50;99.90
38456;DHT22;24237;50.106;20.014;2023-05-16T13:54:31;21.50;99.90
38456;DHT22;24237;50.106;20.014;2023-05-16T13:56:57;21.50;99.90
38456;DHT22;24237;50.106;20.014;2023-05-16T13:59:23;21.70;99.90
38456;DHT22;24237;50.106;20.014;2023-05-16T14:01:49;21.70;99.90
38456;DHT22;24237;50.106;20.014;2023-05-16T14:04:15;21.90;99.90
38456;DHT22;24237;50.106;20.014;2023-05-16T14:06:40;22.30;99.90
38456;DHT22;24237;50.106;20.014;2023-05-16T14:09:06;22.50;99.90
38456;DHT22;24237;50.106;20.014;2023-05-16T14:11:32;22.40;99.90
38456;DHT22;24237;50.106;20.014;2023-05-16T14:13:58;22.40;99.90
38456;DHT22;24237;50.106;20.014;2023-05-16T14:16:24;22.50;99.90
38456;DHT22;24237;50.106;20.014;2023-05-16T14:18:50;22.30;99.90
38456;DHT22;24237;50.106;20.014;2023-05-16T14:21:15;22.20;99.90
38456;DHT22;24237;50.106;20.014;2023-05-16T14:23:41;22.20;99.90
38456;DHT22;24237;50.106;20.014;2023-05-16T14:26:07;22.30;99.90
38456;DHT22;24237;50.106;20.014;2023-05-16T14:28:32;22.20;99.90
38456;DHT22;24237;50.106;20.014;2023-05-16T14:30:59;22.00;99.90
38456;DHT22;24237;50.106;20.014;2023-05-16T14:33:24;22.00;99.90
38456;DHT22;24237;50.106;20.014;2023-05-16T14:35:50;21.80;99.90
38456;DHT22;24237;50.106;20.014;2023-05-16T14:38:16;21.70;99.90
38456;DHT22;24237;50.106;20.014;2023-05-16T14:40:42;21.80;99.90
38456;DHT22;24237;50.106;20.014;2023-05-16T14:43:07;21.80;99.90
38456;DHT22;24237;50.106;20.014;2023-05-16T14:45:33;21.80;99.90
38456;DHT22;24237;50.106;20.014;2023-05-16T14:47:59;21.50;99.90
38456;DHT22;24237;50.106;20.014;2023-05-16T14:50:24;21.20;99.90
38456;DHT22;24237;50.106;20.014;2023-05-16T14:52:50;21.00;99.90
38456;DHT22;24237;50.106;20.014;2023-05-16T14:55:17;21.10;99.90
38456;DHT22;24237;50.106;20.014;2023-05-16T14:57:43;21.00;99.90
38456;DHT22;24237;50.106;20.014;2023-05-16T15:00:09;20.80;99.90
38456;DHT22;24237;50.106;20.014;2023-05-16T15:02:35;20.70;99.90
38456;DHT22;24237;50.106;20.014;2023-05-16T15:05:01;20.50;99.90
38456;DHT22;24237;50.106;20.014;2023-05-16T15:07:27;20.60;99.90
38456;DHT22;24237;50.106;20.014;2023-05-16T15:09:53;20.50;99.90
38456;DHT22;24237;50.106;20.014;2023-05-16T15:12:18;20.60;99.90
38456;DHT22;24237;50.106;20.014;2023-05-16T15:14:44;20.60;99.90
38456;DHT22;24237;50.106;20.014;2023-05-16T15:17:29;20.70;99.90
38456;DHT22;24237;50.106;20.014;2023-05-16T15:19:55;20.70;99.90
38456;DHT22;24237;50.106;20.014;2023-05-16T15:22:22;20.50;99.90
38456;DHT22;24237;50.106;20.014;2023-05-16T15:24:47;20.40;99.90
38456;DHT22;24237;50.106;20.014;2023-05-16T15:27:13;20.40;99.90
38456;DHT22;24237;50.106;20.014;2023-05-16T15:29:38;20.40;99.90
38456;DHT22;24237;50.106;20.014;2023-05-16T15:32:04;20.50;99.90
38456;DHT22;24237;50.106;20.014;2023-05-16T15:34:30;20.50;99.90
38456;DHT22;24237;50.106;20.014;2023-05-16T15:36:57;20.60;99.90
38456;DHT22;24237;50.106;20.014;2023-05-16T15:39:23;20.60;99.90
38456;DHT22;24237;50.106;20.014;2023-05-16T15:41:50;20.60;99.90
38456;DHT22;24237;50.106;20.014;2023-05-16T15:44:16;20.60;99.90